Time;durP1;ratioP1;P1;durP2;ratioP2;P2;SDS_P1;SDS_P2;PMS_P1;PMS_P2;Temp;Humidity;BMP_temperature;BMP_pressure;BME280_temperature;BME280_humidity;BME280_pressure;Samples;Min_cycle;Max_cycle;Signal;HPM_P1;HPM_P2
2022/07/28 00:23:32;;;;;;;;;;;12.80;69.10;;;;;;5097840;28;19927;-69
2022/07/28 00:25:59;;;;;;;;;;;12.90;68.70;;;;;;5108459;28;19916;-70
2022/07/28 00:28:26;;;;;;;;;;;12.90;68.20;;;;;;5110539;28;19912;-69
2022/07/28 00:30:54;;;;;;;;;;;13.00;68.40;;;;;;5114292;27;19912;-69
2022/07/28 00:33:21;;;;;;;;;;;13.00;67.90;;;;;;5112919;27;19912;-69
2022/07/28 00:35:47;;;;;;;;;;;13.10;67.60;;;;;;5118910;27;19908;-69
2022/07/28 00:38:14;;;;;;;;;;;13.20;68.00;;;;;;5111465;27;19912;-70
2022/07/28 00:43:25;;;;;;;;;;;13.20;67.90;;;;;;5112206;28;19918;-68
2022/07/28 00:45:51;;;;;;;;;;;13.20;68.00;;;;;;5109891;28;19918;-68
2022/07/28 00:48:18;;;;;;;;;;;13.20;67.80;;;;;;5107257;28;19912;-69
2022/07/28 00:50:44;;;;;;;;;;;13.30;67.70;;;;;;5103938;28;19912;-68
2022/07/28 00:53:11;;;;;;;;;;;13.30;67.50;;;;;;5092009;28;19923;-69
2022/07/28 00:55:37;;;;;;;;;;;13.30;67.60;;;;;;5088417;28;20014;-69
2022/07/28 00:58:04;;;;;;;;;;;13.40;67.60;;;;;;5109493;28;19912;-69
2022/07/28 01:00:31;;;;;;;;;;;13.50;67.60;;;;;;5089335;28;20385;-69
2022/07/28 01:02:57;;;;;;;;;;;13.50;67.50;;;;;;5107400;28;20316;-68
2022/07/28 01:05:24;;;;;;;;;;;13.50;67.70;;;;;;5085082;28;19930;-68
2022/07/28 01:07:50;;;;;;;;;;;13.60;67.10;;;;;;5098955;28;20285;-68
2022/07/28 01:10:34;;;;;;;;;;;13.60;67.30;;;;;;5104151;28;19920;-68
2022/07/28 01:13:02;;;;;;;;;;;13.70;66.70;;;;;;5108246;28;20513;-69
2022/07/28 01:15:31;;;;;;;;;;;13.70;66.90;;;;;;5079535;28;20658;-68
2022/07/28 01:18:03;;;;;;;;;;;13.70;67.00;;;;;;5084798;28;19919;-69
2022/07/28 01:20:49;;;;;;;;;;;13.70;67.50;;;;;;5114940;28;20279;-69
2022/07/28 01:23:19;;;;;;;;;;;13.70;66.90;;;;;;5099457;28;19928;-69
2022/07/28 01:25:45;;;;;;;;;;;13.70;66.50;;;;;;5108849;28;20011;-69
2022/07/28 01:28:15;;;;;;;;;;;13.80;66.30;;;;;;5112630;28;19912;-69
2022/07/28 01:30:42;;;;;;;;;;;13.80;65.50;;;;;;5088671;28;19966;-69
2022/07/28 01:33:21;;;;;;;;;;;13.90;65.30;;;;;;5113265;27;19916;-68
2022/07/28 01:35:50;;;;;;;;;;;14.00;65.40;;;;;;5114180;28;19941;-68
2022/07/28 01:38:17;;;;;;;;;;;14.10;64.90;;;;;;5115011;27;19912;-68
2022/07/28 01:40:44;;;;;;;;;;;14.10;64.60;;;;;;5099119;28;20262;-69
2022/07/28 01:43:11;;;;;;;;;;;14.20;64.90;;;;;;5098892;27;19969;-69
2022/07/28 01:45:39;;;;;;;;;;;14.20;64.30;;;;;;5107472;27;19926;-68
2022/07/28 01:48:06;;;;;;;;;;;14.30;64.30;;;;;;5113853;28;20378;-69
2022/07/28 01:50:33;;;;;;;;;;;14.20;64.10;;;;;;5113416;27;19951;-69
2022/07/28 01:52:59;;;;;;;;;;;14.20;63.90;;;;;;5098933;27;20230;-68
2022/07/28 01:55:26;;;;;;;;;;;14.20;63.60;;;;;;5111625;28;20258;-68
2022/07/28 01:57:53;;;;;;;;;;;14.30;64.00;;;;;;5090877;28;19947;-68
2022/07/28 02:00:19;;;;;;;;;;;14.30;64.00;;;;;;5123280;27;19924;-69
2022/07/28 02:02:46;;;;;;;;;;;14.30;64.00;;;;;;5097670;28;19927;-69
2022/07/28 02:05:15;;;;;;;;;;;14.40;63.30;;;;;;5114961;27;19916;-68
2022/07/28 02:07:42;;;;;;;;;;;14.40;63.30;;;;;;5088518;28;20389;-69
2022/07/28 02:10:09;;;;;;;;;;;14.50;63.60;;;;;;5115956;27;20393;-69
2022/07/28 02:12:35;;;;;;;;;;;14.50;62.90;;;;;;5114880;27;19919;-68
2022/07/28 02:15:02;;;;;;;;;;;14.50;62.90;;;;;;5110829;27;19919;-69
2022/07/28 02:17:32;;;;;;;;;;;14.50;62.70;;;;;;5078217;28;19912;-68
2022/07/28 02:19:58;;;;;;;;;;;14.50;62.70;;;;;;5078784;28;19916;-68
2022/07/28 02:22:25;;;;;;;;;;;14.50;63.20;;;;;;5105142;27;19920;-68
2022/07/28 02:24:55;;;;;;;;;;;14.60;63.00;;;;;;5100937;28;20012;-68
2022/07/28 02:27:23;;;;;;;;;;;14.60;62.60;;;;;;5113352;27;19916;-68
2022/07/28 02:29:50;;;;;;;;;;;14.70;62.30;;;;;;5118938;27;19915;-68
2022/07/28 02:32:37;;;;;;;;;;;14.70;61.70;;;;;;5107460;27;19985;-68
2022/07/28 02:35:15;;;;;;;;;;;14.70;61.60;;;;;;5102869;27;19919;-68
2022/07/28 02:37:44;;;;;;;;;;;14.80;61.60;;;;;;5111437;27;20413;-69
2022/07/28 02:40:12;;;;;;;;;;;14.80;61.50;;;;;;5096231;28;19923;-69
2022/07/28 02:42:39;;;;;;;;;;;14.80;61.60;;;;;;5111177;27;19937;-68
2022/07/28 02:45:06;;;;;;;;;;;14.80;61.30;;;;;;5110129;27;19935;-68
2022/07/28 02:47:34;;;;;;;;;;;14.80;60.80;;;;;;5114513;27;19923;-68
2022/07/28 02:50:01;;;;;;;;;;;14.80;60.60;;;;;;5105776;28;19950;-68
2022/07/28 02:52:27;;;;;;;;;;;14.80;60.30;;;;;;5097082;27;19908;-69
2022/07/28 02:54:54;;;;;;;;;;;14.80;61.20;;;;;;5097493;28;19912;-69
2022/07/28 02:57:21;;;;;;;;;;;14.90;62.20;;;;;;5096816;28;19918;-69
2022/07/28 02:59:47;;;;;;;;;;;14.80;61.80;;;;;;5103537;28;19962;-69
2022/07/28 03:02:14;;;;;;;;;;;15.20;60.40;;;;;;5091130;28;19908;-68
2022/07/28 03:04:57;;;;;;;;;;;15.20;61.00;;;;;;5087549;28;19919;-68
2022/07/28 03:07:29;;;;;;;;;;;15.20;61.10;;;;;;5119194;27;19966;-68
2022/07/28 03:09:56;;;;;;;;;;;15.10;60.50;;;;;;5110842;27;20262;-69
2022/07/28 03:12:22;;;;;;;;;;;15.10;60.00;;;;;;5117646;27;19912;-68
2022/07/28 03:14:49;;;;;;;;;;;15.10;60.60;;;;;;5110955;27;19915;-68
2022/07/28 03:17:16;;;;;;;;;;;15.10;60.80;;;;;;5123760;27;20280;-68
2022/07/28 03:19:42;;;;;;;;;;;15.10;60.50;;;;;;5100647;27;19911;-69
2022/07/28 03:22:09;;;;;;;;;;;15.20;60.10;;;;;;5114757;27;20007;-68
2022/07/28 03:24:36;;;;;;;;;;;15.20;60.00;;;;;;5123880;27;19908;-68
2022/07/28 03:27:18;;;;;;;;;;;15.20;60.10;;;;;;5109220;27;19912;-68
2022/07/28 03:29:45;;;;;;;;;;;15.20;59.60;;;;;;5114836;27;19947;-69
2022/07/28 03:32:12;;;;;;;;;;;15.20;60.60;;;;;;5112119;27;19945;-68
2022/07/28 03:34:39;;;;;;;;;;;15.20;60.10;;;;;;5126090;27;19912;-68
2022/07/28 03:37:09;;;;;;;;;;;15.20;59.00;;;;;;5127243;27;20270;-68
2022/07/28 03:39:37;;;;;;;;;;;15.20;59.40;;;;;;5122057;27;19919;-68
2022/07/28 03:42:03;;;;;;;;;;;15.30;59.00;;;;;;5110378;27;19920;-68
2022/07/28 03:44:30;;;;;;;;;;;15.30;58.50;;;;;;5112278;27;19914;-68
2022/07/28 03:46:57;;;;;;;;;;;15.30;59.00;;;;;;5094224;28;20400;-68
2022/07/28 03:49:23;;;;;;;;;;;15.30;58.70;;;;;;5108839;27;19995;-68
2022/07/28 03:51:50;;;;;;;;;;;15.30;58.40;;;;;;5115600;27;19908;-68
2022/07/28 03:54:16;;;;;;;;;;;15.30;59.20;;;;;;5113086;28;19908;-68
2022/07/28 03:56:43;;;;;;;;;;;15.30;58.90;;;;;;5114948;27;19919;-68
2022/07/28 03:59:10;;;;;;;;;;;15.30;58.30;;;;;;5109749;27;19911;-68
2022/07/28 04:01:37;;;;;;;;;;;15.40;57.80;;;;;;5117936;27;19916;-68
2022/07/28 04:04:03;;;;;;;;;;;15.50;55.70;;;;;;5113316;27;19912;-68
2022/07/28 04:06:30;;;;;;;;;;;15.50;56.60;;;;;;5115971;27;20361;-68
2022/07/28 04:08:56;;;;;;;;;;;15.50;57.20;;;;;;5079057;28;19919;-70
2022/07/28 04:11:23;;;;;;;;;;;15.50;56.80;;;;;;5103856;28;20294;-69
2022/07/28 04:13:50;;;;;;;;;;;15.60;56.60;;;;;;5106888;28;19916;-70
2022/07/28 04:16:16;;;;;;;;;;;15.60;56.50;;;;;;5089268;27;19965;-68
2022/07/28 04:18:43;;;;;;;;;;;15.60;56.40;;;;;;5105038;28;20321;-68
2022/07/28 04:21:09;;;;;;;;;;;15.70;56.50;;;;;;5104093;28;19950;-63
2022/07/28 04:23:36;;;;;;;;;;;15.60;57.60;;;;;;5106223;28;19927;-63
2022/07/28 04:26:03;;;;;;;;;;;15.70;57.00;;;;;;5103839;28;19920;-63
2022/07/28 04:28:29;;;;;;;;;;;15.60;56.20;;;;;;5097346;28;19980;-63
2022/07/28 04:30:56;;;;;;;;;;;15.60;55.80;;;;;;5100737;28;19908;-63
2022/07/28 04:33:23;;;;;;;;;;;15.70;55.20;;;;;;5095056;28;19994;-63
2022/07/28 04:35:51;;;;;;;;;;;15.60;54.80;;;;;;5109199;28;19912;-63
2022/07/28 04:38:19;;;;;;;;;;;15.60;54.50;;;;;;5110083;28;19957;-63
2022/07/28 04:40:46;;;;;;;;;;;15.60;54.70;;;;;;5093355;28;19955;-63
2022/07/28 04:43:13;;;;;;;;;;;15.60;54.70;;;;;;5111986;28;20404;-63
2022/07/28 04:45:39;;;;;;;;;;;15.60;55.50;;;;;;5112635;28;19919;-63
2022/07/28 04:48:06;;;;;;;;;;;15.60;55.60;;;;;;5112631;28;19908;-63
2022/07/28 04:50:33;;;;;;;;;;;15.60;55.50;;;;;;5112539;28;19963;-63
2022/07/28 04:52:59;;;;;;;;;;;15.60;56.20;;;;;;5112619;28;20393;-63
2022/07/28 04:55:26;;;;;;;;;;;15.70;56.30;;;;;;5112538;28;19935;-63
2022/07/28 04:57:52;;;;;;;;;;;15.70;56.20;;;;;;5112369;28;20022;-63
2022/07/28 05:00:20;;;;;;;;;;;15.70;56.60;;;;;;5112684;28;19994;-63
2022/07/28 05:02:47;;;;;;;;;;;15.80;56.10;;;;;;5094856;28;19908;-63
2022/07/28 05:05:14;;;;;;;;;;;15.80;56.30;;;;;;5116621;28;20373;-63
2022/07/28 05:07:41;;;;;;;;;;;15.80;55.50;;;;;;5117231;28;19916;-63
2022/07/28 08:24:42;;;;;;;;;;;15.00;60.40;;;;;;5095964;28;20404;-65
2022/07/28 08:27:08;;;;;;;;;;;15.00;60.30;;;;;;5114852;27;20441;-65
2022/07/28 08:29:35;;;;;;;;;;;15.00;60.60;;;;;;5102624;28;19923;-65
2022/07/28 08:32:02;;;;;;;;;;;15.00;60.80;;;;;;5103293;28;20250;-66
2022/07/28 08:34:29;;;;;;;;;;;14.90;61.30;;;;;;5102325;28;19918;-65
2022/07/28 08:36:56;;;;;;;;;;;15.00;61.30;;;;;;5100518;28;19923;-65
2022/07/28 08:39:23;;;;;;;;;;;14.90;61.60;;;;;;5081106;28;19920;-66
2022/07/28 08:42:00;;;;;;;;;;;14.90;61.60;;;;;;5101141;28;19916;-65
2022/07/28 08:44:27;;;;;;;;;;;14.90;61.70;;;;;;5078018;28;20286;-64
2022/07/28 08:46:54;;;;;;;;;;;14.90;61.90;;;;;;5097324;28;19908;-64
2022/07/28 08:49:20;;;;;;;;;;;14.80;62.30;;;;;;5104132;28;19923;-63
2022/07/28 08:51:47;;;;;;;;;;;14.80;62.50;;;;;;5091241;28;19947;-64
2022/07/28 08:54:15;;;;;;;;;;;14.80;62.60;;;;;;5106337;28;19916;-64
2022/07/28 08:56:41;;;;;;;;;;;14.70;62.70;;;;;;5088817;28;19916;-65
2022/07/28 08:59:08;;;;;;;;;;;14.70;62.70;;;;;;5089238;28;19922;-65
2022/07/28 09:01:35;;;;;;;;;;;14.70;62.80;;;;;;5108506;28;19920;-64
2022/07/28 09:04:02;;;;;;;;;;;14.70;63.20;;;;;;5109028;28;20006;-64
2022/07/28 09:06:28;;;;;;;;;;;14.70;63.20;;;;;;5108919;28;20341;-65
2022/07/28 09:08:55;;;;;;;;;;;14.70;63.90;;;;;;5091119;28;19994;-65
2022/07/28 09:11:21;;;;;;;;;;;14.70;63.70;;;;;;5099004;28;20586;-65
2022/07/28 09:13:48;;;;;;;;;;;14.70;64.10;;;;;;5096261;28;19955;-65
2022/07/28 09:16:14;;;;;;;;;;;14.70;63.90;;;;;;5109341;28;20376;-66
2022/07/28 09:18:41;;;;;;;;;;;14.70;63.80;;;;;;5089303;28;20271;-64
2022/07/28 09:21:07;;;;;;;;;;;14.70;63.80;;;;;;5103674;28;19924;-65
2022/07/28 09:23:44;;;;;;;;;;;14.70;63.90;;;;;;5087385;28;19926;-64
2022/07/28 09:26:11;;;;;;;;;;;14.70;64.10;;;;;;5089643;28;19954;-63
2022/07/28 09:28:47;;;;;;;;;;;14.70;64.30;;;;;;5086417;28;20272;-64
2022/07/28 09:31:14;;;;;;;;;;;14.60;64.30;;;;;;5084903;28;19916;-66
2022/07/28 09:33:40;;;;;;;;;;;14.60;64.50;;;;;;5087198;28;19923;-65
2022/07/28 09:36:12;;;;;;;;;;;14.60;64.70;;;;;;5104628;28;20410;-64
2022/07/28 09:38:41;;;;;;;;;;;14.50;64.50;;;;;;5087764;28;20403;-65
2022/07/28 09:41:08;;;;;;;;;;;14.50;65.00;;;;;;5088351;28;19931;-65
2022/07/28 09:43:37;;;;;;;;;;;14.50;65.00;;;;;;5086730;28;20412;-64
2022/07/28 09:46:14;;;;;;;;;;;14.50;64.60;;;;;;5077169;28;19916;-65
2022/07/28 09:48:49;;;;;;;;;;;14.50;64.80;;;;;;5088262;28;19920;-65
2022/07/28 09:51:16;;;;;;;;;;;14.50;64.50;;;;;;5080093;28;19912;-65
2022/07/28 09:53:43;;;;;;;;;;;14.40;64.70;;;;;;5092251;28;20549;-66
2022/07/28 09:56:10;;;;;;;;;;;14.40;64.90;;;;;;5092600;28;20302;-63
2022/07/28 09:58:37;;;;;;;;;;;14.40;64.60;;;;;;5090613;28;20347;-64
2022/07/28 10:01:19;;;;;;;;;;;14.40;64.70;;;;;;5096089;28;19919;-65
2022/07/28 10:03:48;;;;;;;;;;;14.40;64.60;;;;;;5094482;28;19923;-64
2022/07/28 10:06:15;;;;;;;;;;;14.40;64.50;;;;;;5091973;28;20282;-66
2022/07/28 10:08:41;;;;;;;;;;;14.40;64.90;;;;;;5092420;28;19922;-64
2022/07/28 10:11:08;;;;;;;;;;;14.30;65.00;;;;;;5086761;28;20297;-62
2022/07/28 10:13:35;;;;;;;;;;;14.30;64.80;;;;;;5089205;28;20015;-63
2022/07/28 10:16:12;;;;;;;;;;;14.30;64.90;;;;;;5087441;28;19927;-63
2022/07/28 10:18:41;;;;;;;;;;;14.30;65.30;;;;;;5090373;28;20356;-63
2022/07/28 10:21:08;;;;;;;;;;;14.30;65.40;;;;;;5092229;28;19931;-63
2022/07/28 10:23:37;;;;;;;;;;;14.30;65.30;;;;;;5101101;28;19924;-63
2022/07/28 10:26:05;;;;;;;;;;;14.20;64.90;;;;;;5111502;28;19912;-63
2022/07/28 10:28:33;;;;;;;;;;;14.30;64.80;;;;;;5092096;28;19912;-62
2022/07/28 10:30:59;;;;;;;;;;;14.20;65.70;;;;;;5105847;28;20392;-64
2022/07/28 10:33:26;;;;;;;;;;;14.20;65.90;;;;;;5093800;28;19919;-63
2022/07/28 10:35:52;;;;;;;;;;;14.20;65.60;;;;;;5086831;28;19985;-65
2022/07/28 10:38:20;;;;;;;;;;;14.20;65.60;;;;;;5104939;27;20390;-65
2022/07/28 10:40:46;;;;;;;;;;;14.20;65.90;;;;;;5085830;28;19922;-65
2022/07/28 10:43:13;;;;;;;;;;;14.20;66.00;;;;;;5096209;28;19916;-64
2022/07/28 10:45:40;;;;;;;;;;;14.20;66.40;;;;;;5102863;28;19916;-63
2022/07/28 10:48:06;;;;;;;;;;;14.20;66.60;;;;;;5112289;28;19908;-64
2022/07/28 10:50:36;;;;;;;;;;;14.10;66.10;;;;;;5085538;28;20326;-63
2022/07/28 10:53:02;;;;;;;;;;;14.10;66.40;;;;;;5087825;28;19915;-64
2022/07/28 10:55:29;;;;;;;;;;;14.10;66.40;;;;;;5098003;28;20427;-65
2022/07/28 10:58:02;;;;;;;;;;;14.10;66.60;;;;;;5118265;27;19914;-64
2022/07/28 11:00:28;;;;;;;;;;;14.20;66.40;;;;;;5084142;28;19954;-65
2022/07/28 11:02:57;;;;;;;;;;;14.10;65.80;;;;;;5093481;28;19964;-66
2022/07/28 11:05:37;;;;;;;;;;;14.10;65.90;;;;;;5091914;28;19912;-65
2022/07/28 11:08:05;;;;;;;;;;;14.20;66.10;;;;;;5110049;28;19947;-66
2022/07/28 11:10:52;;;;;;;;;;;14.20;66.30;;;;;;5105668;27;20234;-64
2022/07/28 11:13:22;;;;;;;;;;;14.20;65.80;;;;;;5112770;27;20003;-66
2022/07/28 11:15:49;;;;;;;;;;;14.20;65.90;;;;;;5083870;28;20357;-66
2022/07/28 11:18:15;;;;;;;;;;;14.20;65.80;;;;;;5099640;27;19911;-65
2022/07/28 11:20:57;;;;;;;;;;;14.20;66.20;;;;;;5119430;27;19954;-65
2022/07/28 11:23:39;;;;;;;;;;;14.20;65.60;;;;;;5119421;27;20140;-69
2022/07/28 11:26:24;;;;;;;;;;;14.20;65.80;;;;;;5115925;27;19918;-69
2022/07/28 11:28:59;;;;;;;;;;;14.20;66.10;;;;;;5105447;28;20023;-69
2022/07/28 11:31:44;;;;;;;;;;;14.20;66.20;;;;;;5111680;27;19918;-67
2022/07/28 11:34:11;;;;;;;;;;;14.20;66.20;;;;;;5096252;27;19908;-67
2022/07/28 11:36:56;;;;;;;;;;;14.10;66.60;;;;;;5112369;27;19999;-68
2022/07/28 11:39:33;;;;;;;;;;;14.10;66.90;;;;;;5095827;27;20385;-67
2022/07/28 11:41:59;;;;;;;;;;;14.10;67.70;;;;;;5102978;27;19922;-67
2022/07/28 11:44:27;;;;;;;;;;;14.10;67.60;;;;;;5097883;27;20277;-66
2022/07/28 11:46:54;;;;;;;;;;;14.10;67.60;;;;;;5097263;28;19922;-68
2022/07/28 11:49:21;;;;;;;;;;;14.10;67.60;;;;;;5116433;27;20380;-67
2022/07/28 11:52:07;;;;;;;;;;;14.10;67.70;;;;;;5117646;27;19912;-66
2022/07/28 11:54:34;;;;;;;;;;;14.00;68.10;;;;;;5111201;27;20006;-65
2022/07/28 11:57:01;;;;;;;;;;;14.00;67.80;;;;;;5110621;28;20282;-63
2022/07/28 11:59:27;;;;;;;;;;;14.00;67.90;;;;;;5110710;28;20339;-63
2022/07/28 12:01:55;;;;;;;;;;;14.00;67.60;;;;;;5098800;27;20301;-64
2022/07/28 12:04:25;;;;;;;;;;;14.00;68.20;;;;;;5117160;27;19923;-63
2022/07/28 12:06:52;;;;;;;;;;;14.00;68.30;;;;;;5123238;27;19968;-66
2022/07/28 12:09:19;;;;;;;;;;;14.00;68.40;;;;;;5104512;27;19911;-65
2022/07/28 12:11:52;;;;;;;;;;;14.00;68.40;;;;;;5128868;27;19918;-63
2022/07/28 12:14:21;;;;;;;;;;;14.00;68.50;;;;;;5085128;27;20384;-65
2022/07/28 12:16:51;;;;;;;;;;;14.00;68.50;;;;;;5130618;27;19914;-61
2022/07/28 12:19:19;;;;;;;;;;;14.00;68.80;;;;;;5099053;27;20358;-65
2022/07/28 12:21:46;;;;;;;;;;;14.00;69.10;;;;;;5111162;28;20022;-65
2022/07/28 12:24:13;;;;;;;;;;;14.00;69.60;;;;;;5111535;28;19943;-65
2022/07/28 12:26:40;;;;;;;;;;;13.90;69.30;;;;;;5111992;27;20385;-65
2022/07/28 12:29:07;;;;;;;;;;;13.90;69.40;;;;;;5109969;28;19912;-64
2022/07/28 12:31:36;;;;;;;;;;;13.90;69.70;;;;;;5107231;28;20010;-63
2022/07/28 12:34:06;;;;;;;;;;;13.90;69.40;;;;;;5114132;27;19912;-65
2022/07/28 12:36:33;;;;;;;;;;;13.90;69.50;;;;;;5113411;27;19911;-63
2022/07/28 12:39:00;;;;;;;;;;;13.90;69.80;;;;;;5107770;28;19911;-63
2022/07/28 12:41:33;;;;;;;;;;;13.80;69.90;;;;;;5094083;27;20434;-62
2022/07/28 12:43:59;;;;;;;;;;;13.80;70.10;;;;;;5103806;27;19942;-63
2022/07/28 12:46:26;;;;;;;;;;;13.80;70.20;;;;;;5114041;27;19916;-63
2022/07/28 12:48:56;;;;;;;;;;;13.70;70.60;;;;;;5109999;28;19908;-65
2022/07/28 12:51:30;;;;;;;;;;;13.70;69.70;;;;;;5091675;28;19916;-65
2022/07/28 12:53:56;;;;;;;;;;;13.70;69.60;;;;;;5109654;28;19915;-64
2022/07/28 12:56:23;;;;;;;;;;;13.80;69.20;;;;;;5109469;28;19953;-64
2022/07/28 12:59:02;;;;;;;;;;;13.80;69.40;;;;;;5112241;28;19961;-64
2022/07/28 13:01:44;;;;;;;;;;;13.80;69.70;;;;;;5112556;28;19924;-64
2022/07/28 13:04:11;;;;;;;;;;;13.80;70.50;;;;;;5103581;28;19923;-64
2022/07/28 13:06:37;;;;;;;;;;;13.70;70.70;;;;;;5112680;28;19927;-64
2022/07/28 13:09:04;;;;;;;;;;;13.80;70.40;;;;;;5098501;28;19998;-64
2022/07/28 13:11:30;;;;;;;;;;;13.70;71.40;;;;;;5120505;28;19958;-65
2022/07/28 13:13:57;;;;;;;;;;;13.70;71.00;;;;;;5112197;28;19908;-64
2022/07/28 13:16:24;;;;;;;;;;;13.70;71.40;;;;;;5110898;28;19998;-64
2022/07/28 13:18:52;;;;;;;;;;;13.70;71.60;;;;;;5090396;28;19912;-64
2022/07/28 13:21:39;;;;;;;;;;;13.70;71.50;;;;;;5111265;28;19916;-64
2022/07/28 13:24:08;;;;;;;;;;;13.70;71.60;;;;;;5110764;28;19920;-65
2022/07/28 13:26:38;;;;;;;;;;;13.70;70.80;;;;;;5077888;28;19914;-65
2022/07/28 13:29:05;;;;;;;;;;;13.70;70.90;;;;;;5112888;28;19908;-64
2022/07/28 13:31:34;;;;;;;;;;;13.70;71.10;;;;;;5116209;28;20292;-65
2022/07/28 13:34:01;;;;;;;;;;;13.70;70.80;;;;;;5116832;28;19911;-65
2022/07/28 13:36:27;;;;;;;;;;;13.70;70.90;;;;;;5116278;28;20323;-65
2022/07/28 13:38:54;;;;;;;;;;;13.70;71.60;;;;;;5116737;28;19912;-65
2022/07/28 13:41:21;;;;;;;;;;;13.70;71.40;;;;;;5115963;28;20289;-65
2022/07/28 13:43:47;;;;;;;;;;;13.70;71.00;;;;;;5097629;28;19912;-65
2022/07/28 13:46:15;;;;;;;;;;;13.70;71.60;;;;;;5116211;28;19914;-65
2022/07/28 13:48:41;;;;;;;;;;;13.70;71.80;;;;;;5098257;28;19922;-65
2022/07/28 13:51:11;;;;;;;;;;;13.70;72.30;;;;;;5116344;28;20065;-65
2022/07/28 13:53:38;;;;;;;;;;;13.70;72.40;;;;;;5116155;28;19912;-64
2022/07/28 13:56:04;;;;;;;;;;;13.70;71.80;;;;;;5116633;28;19912;-65
2022/07/28 13:58:31;;;;;;;;;;;13.70;71.70;;;;;;5116251;28;19912;-65
2022/07/28 17:02:25;;;;;;;;;;;12.80;72.00;;;;;;5079580;28;19973;-64
2022/07/28 17:04:52;;;;;;;;;;;12.80;72.40;;;;;;5092296;28;19916;-64
2022/07/28 17:07:22;;;;;;;;;;;12.80;72.30;;;;;;5092428;28;19924;-64
2022/07/28 17:09:48;;;;;;;;;;;12.70;72.30;;;;;;5092479;28;19908;-64
2022/07/28 17:12:15;;;;;;;;;;;12.70;72.20;;;;;;5090584;28;19908;-64
2022/07/28 17:14:42;;;;;;;;;;;12.70;72.50;;;;;;5085347;28;19950;-65
2022/07/28 17:17:08;;;;;;;;;;;12.70;72.60;;;;;;5092159;28;20003;-64
2022/07/28 17:19:35;;;;;;;;;;;12.60;72.90;;;;;;5091910;28;19919;-64
2022/07/28 17:22:05;;;;;;;;;;;12.60;73.00;;;;;;5091838;28;19916;-64
2022/07/28 17:24:32;;;;;;;;;;;12.60;72.90;;;;;;5082055;28;19987;-64
2022/07/28 17:26:59;;;;;;;;;;;12.50;73.10;;;;;;5091812;28;20318;-64
2022/07/28 17:29:25;;;;;;;;;;;12.50;73.10;;;;;;5091835;28;20266;-64
2022/07/28 17:31:52;;;;;;;;;;;12.50;72.90;;;;;;5092208;28;20525;-64
2022/07/28 17:34:18;;;;;;;;;;;12.50;73.10;;;;;;5078700;28;19959;-64
2022/07/28 17:36:46;;;;;;;;;;;12.50;72.90;;;;;;5092117;28;20366;-63
2022/07/28 17:39:12;;;;;;;;;;;12.40;73.00;;;;;;5091935;28;19963;-64
2022/07/28 17:41:39;;;;;;;;;;;12.40;72.90;;;;;;5089517;28;19931;-64
2022/07/28 17:44:06;;;;;;;;;;;12.40;73.20;;;;;;5091249;28;20274;-64
2022/07/28 17:46:33;;;;;;;;;;;12.40;73.10;;;;;;5091964;28;19919;-64
2022/07/28 17:49:00;;;;;;;;;;;12.40;72.80;;;;;;5091927;28;19912;-64
2022/07/28 17:51:27;;;;;;;;;;;12.30;72.70;;;;;;5091683;28;19908;-64
2022/07/28 17:53:53;;;;;;;;;;;12.30;73.00;;;;;;5090487;28;19919;-64
2022/07/28 17:56:20;;;;;;;;;;;12.30;73.00;;;;;;5092143;28;20273;-64
2022/07/28 17:58:47;;;;;;;;;;;12.20;73.30;;;;;;5092246;28;19919;-64
2022/07/28 18:01:13;;;;;;;;;;;12.20;73.10;;;;;;5086413;28;20010;-64
2022/07/28 18:03:48;;;;;;;;;;;12.20;73.20;;;;;;5088574;28;19916;-64
2022/07/28 18:06:16;;;;;;;;;;;12.20;73.00;;;;;;5091476;28;19912;-64
2022/07/28 18:08:42;;;;;;;;;;;12.20;73.10;;;;;;5091657;28;19918;-64
2022/07/28 18:11:09;;;;;;;;;;;12.20;73.30;;;;;;5094345;28;19915;-64
2022/07/28 18:13:36;;;;;;;;;;;12.20;73.40;;;;;;5090810;28;19912;-64
2022/07/28 18:16:02;;;;;;;;;;;12.20;73.20;;;;;;5091591;28;19962;-64
2022/07/28 18:18:29;;;;;;;;;;;12.20;73.10;;;;;;5094606;28;19908;-64
2022/07/28 18:20:55;;;;;;;;;;;12.20;73.20;;;;;;5095250;28;19920;-64
2022/07/28 18:23:24;;;;;;;;;;;12.20;73.20;;;;;;5089040;28;19916;-64
2022/07/28 18:25:51;;;;;;;;;;;12.20;73.30;;;;;;5095132;28;19912;-64
2022/07/28 18:28:18;;;;;;;;;;;12.20;73.40;;;;;;5095356;28;19908;-65
2022/07/28 18:30:45;;;;;;;;;;;12.20;73.60;;;;;;5095011;28;20445;-64
2022/07/28 18:33:11;;;;;;;;;;;12.20;73.60;;;;;;5087298;28;19993;-65
2022/07/28 18:35:38;;;;;;;;;;;12.10;73.50;;;;;;5091442;28;19984;-64
2022/07/28 18:38:05;;;;;;;;;;;12.10;73.80;;;;;;5094808;28;19908;-64
2022/07/28 18:40:31;;;;;;;;;;;12.20;73.70;;;;;;5094548;28;19916;-64
2022/07/28 18:42:58;;;;;;;;;;;12.20;73.90;;;;;;5094699;28;19913;-64
2022/07/28 18:45:24;;;;;;;;;;;12.20;73.50;;;;;;5095153;28;19912;-64
2022/07/28 18:47:52;;;;;;;;;;;12.20;73.80;;;;;;5095031;28;20006;-64
2022/07/28 18:50:19;;;;;;;;;;;12.20;73.50;;;;;;5094541;28;19908;-64
2022/07/28 18:52:47;;;;;;;;;;;12.10;73.50;;;;;;5094270;28;19951;-64
2022/07/28 18:55:14;;;;;;;;;;;12.10;73.30;;;;;;5094827;28;20235;-64
2022/07/28 19:02:31;;;;;;;;;;;12.10;73.80;;;;;;5089568;28;19923;-64
2022/07/28 19:04:57;;;;;;;;;;;12.10;73.90;;;;;;5094245;28;20009;-64
2022/07/28 19:07:24;;;;;;;;;;;12.10;74.10;;;;;;5094339;28;19970;-64
2022/07/28 19:09:51;;;;;;;;;;;12.10;73.60;;;;;;5086339;28;19979;-64
2022/07/28 19:12:17;;;;;;;;;;;12.10;73.70;;;;;;5094127;28;20286;-64
2022/07/28 19:14:44;;;;;;;;;;;12.00;73.50;;;;;;5094224;28;20285;-64
2022/07/28 19:17:10;;;;;;;;;;;12.00;74.00;;;;;;5094304;28;19951;-64
2022/07/28 19:19:37;;;;;;;;;;;12.00;74.20;;;;;;5091061;28;19916;-64
2022/07/28 19:22:05;;;;;;;;;;;12.00;74.10;;;;;;5092579;28;20332;-64
2022/07/28 19:24:33;;;;;;;;;;;12.00;74.10;;;;;;5094392;28;20317;-62
2022/07/28 19:27:01;;;;;;;;;;;12.00;74.20;;;;;;5093767;28;19915;-63
2022/07/28 19:29:27;;;;;;;;;;;12.00;74.00;;;;;;5089379;28;20332;-63
2022/07/28 19:31:54;;;;;;;;;;;12.00;73.90;;;;;;5085942;28;20019;-64
2022/07/28 19:34:20;;;;;;;;;;;12.00;74.20;;;;;;5095818;28;19919;-64
2022/07/28 19:36:47;;;;;;;;;;;12.00;74.60;;;;;;5092453;28;19908;-64
2022/07/28 19:39:14;;;;;;;;;;;12.00;74.40;;;;;;5098061;28;20305;-64
2022/07/28 19:41:40;;;;;;;;;;;12.00;74.00;;;;;;5093226;28;20350;-64
2022/07/28 19:44:07;;;;;;;;;;;12.00;73.60;;;;;;5093322;28;19962;-64
2022/07/28 19:46:33;;;;;;;;;;;12.00;73.80;;;;;;5093483;28;19908;-64
2022/07/28 19:49:00;;;;;;;;;;;11.90;73.70;;;;;;5093557;28;20007;-65
2022/07/28 19:51:26;;;;;;;;;;;11.90;73.80;;;;;;5092638;28;19912;-65
2022/07/28 19:53:57;;;;;;;;;;;11.80;73.70;;;;;;5093065;28;19908;-64
2022/07/28 19:56:25;;;;;;;;;;;11.80;73.60;;;;;;5092803;28;19908;-64
2022/07/28 19:58:51;;;;;;;;;;;11.80;73.30;;;;;;5085503;28;20294;-65
2022/07/28 20:01:18;;;;;;;;;;;11.70;72.90;;;;;;5092139;28;19920;-64
2022/07/28 20:03:44;;;;;;;;;;;11.70;72.20;;;;;;5093369;28;19914;-67
2022/07/28 20:06:11;;;;;;;;;;;11.70;71.60;;;;;;5092245;28;20344;-64
2022/07/28 20:08:38;;;;;;;;;;;11.70;71.70;;;;;;5091859;28;19920;-64
2022/07/28 20:11:05;;;;;;;;;;;11.70;71.10;;;;;;5092635;28;20253;-64
2022/07/28 20:13:31;;;;;;;;;;;11.60;71.30;;;;;;5093603;28;19958;-65
2022/07/28 20:15:58;;;;;;;;;;;11.60;70.90;;;;;;5092653;28;19908;-64
2022/07/28 20:18:24;;;;;;;;;;;11.60;70.50;;;;;;5096215;28;20381;-64
2022/07/28 20:20:51;;;;;;;;;;;11.60;70.30;;;;;;5092578;28;19912;-64
2022/07/28 20:23:18;;;;;;;;;;;11.60;70.40;;;;;;5092578;28;19923;-64
2022/07/28 20:25:45;;;;;;;;;;;11.60;70.50;;;;;;5092811;28;19916;-64
2022/07/28 20:28:12;;;;;;;;;;;11.50;70.00;;;;;;5092806;28;19908;-64
2022/07/28 20:30:38;;;;;;;;;;;11.50;70.20;;;;;;5092588;28;19980;-64
2022/07/28 20:33:06;;;;;;;;;;;11.40;70.40;;;;;;5092505;28;19908;-64
2022/07/28 20:35:33;;;;;;;;;;;11.40;70.30;;;;;;5092754;28;20441;-64
2022/07/28 20:38:00;;;;;;;;;;;11.30;70.50;;;;;;5092845;28;20281;-64
2022/07/28 20:40:27;;;;;;;;;;;11.30;70.60;;;;;;5092410;28;19918;-64
2022/07/28 20:42:53;;;;;;;;;;;11.30;70.60;;;;;;5092478;28;20054;-64
2022/07/28 20:45:20;;;;;;;;;;;11.30;70.80;;;;;;5092497;28;19909;-64
2022/07/28 20:47:47;;;;;;;;;;;11.20;70.70;;;;;;5092245;28;19912;-66
2022/07/28 20:50:14;;;;;;;;;;;11.20;70.90;;;;;;5092871;28;19915;-64
2022/07/28 20:52:41;;;;;;;;;;;11.20;71.40;;;;;;5092532;28;19975;-64
2022/07/28 20:55:08;;;;;;;;;;;11.20;71.20;;;;;;5092463;28;19912;-64
2022/07/28 20:57:34;;;;;;;;;;;11.20;71.30;;;;;;5092273;28;20006;-64
2022/07/28 21:00:02;;;;;;;;;;;11.10;71.20;;;;;;5092050;28;19916;-64
2022/07/28 21:02:29;;;;;;;;;;;11.10;70.60;;;;;;5091776;28;20019;-63
2022/07/28 21:04:55;;;;;;;;;;;11.10;70.50;;;;;;5092244;28;19915;-64
2022/07/28 21:07:22;;;;;;;;;;;11.20;70.20;;;;;;5092208;28;20002;-64